createdAt,value
2018-09-14T00:00:01.998Z,90.40
2018-09-14T00:01:01.992Z,90.70
2018-09-14T00:02:01.975Z,90.60
2018-09-14T00:03:01.988Z,90.81
2018-09-14T00:04:01.959Z,90.60
2018-09-14T00:05:01.965Z,89.59
2018-09-14T00:06:01.933Z,89.69
2018-09-14T00:07:01.922Z,89.63
2018-09-14T00:08:01.909Z,89.59
2018-09-14T00:09:01.898Z,90.60
2018-09-14T00:10:01.908Z,90.09
2018-09-14T00:11:01.875Z,89.79
2018-09-14T00:12:01.864Z,90.09
2018-09-14T00:13:01.855Z,89.83
2018-09-14T00:14:01.842Z,90.09
2018-09-14T00:15:01.861Z,89.94
2018-09-14T00:16:01.827Z,90.44
2018-09-14T00:17:01.808Z,89.94
2018-09-14T00:18:01.796Z,90.03
2018-09-14T00:19:01.807Z,90.20
2018-09-14T00:20:01.788Z,89.94
2018-09-14T00:21:01.763Z,89.94
2018-09-14T00:22:01.755Z,90.95
2018-09-14T00:23:01.740Z,90.03
2018-09-14T00:24:01.730Z,90.03
2018-09-14T00:25:01.741Z,90.44
2018-09-14T00:26:01.709Z,90.69
2018-09-14T00:27:01.696Z,90.85
2018-09-14T00:28:01.686Z,90.95
2018-09-14T00:29:01.674Z,91.16
2018-09-14T00:30:01.684Z,91.46
2018-09-14T00:31:01.677Z,90.75
2018-09-14T00:32:01.642Z,90.55
2018-09-14T00:33:01.630Z,90.85
2018-09-14T00:34:01.618Z,91.16
2018-09-14T00:35:01.606Z,90.95
2018-09-14T00:36:01.616Z,90.85
2018-09-14T00:37:01.584Z,91.26
2018-09-14T00:38:01.574Z,90.44
2018-09-14T00:39:01.565Z,90.64
2018-09-14T00:40:01.574Z,90.44
2018-09-14T00:41:01.541Z,90.64
2018-09-14T00:42:01.532Z,90.85
2018-09-14T00:43:01.522Z,90.44
2018-09-14T00:44:01.507Z,91.46
2018-09-14T00:45:01.517Z,90.85
2018-09-14T00:46:01.486Z,90.44
2018-09-14T00:47:01.472Z,90.75
2018-09-14T00:48:01.462Z,91.05
2018-09-14T00:49:01.452Z,90.44
2018-09-14T00:50:01.461Z,91.05
2018-09-14T00:51:01.429Z,91.05
2018-09-14T00:52:01.438Z,90.55
2018-09-14T00:53:01.406Z,90.75
2018-09-14T00:54:01.418Z,90.55
2018-09-14T00:55:01.406Z,90.64
2018-09-14T00:56:01.382Z,91.26
2018-09-14T00:57:01.364Z,91.46
2018-09-14T00:58:01.353Z,91.26
2018-09-14T00:59:01.339Z,90.28
2018-09-14T01:00:01.349Z,91.61
2018-09-14T01:01:01.318Z,90.99
2018-09-14T01:02:01.311Z,91.36
2018-09-14T01:03:01.294Z,90.89
2018-09-14T01:04:01.317Z,91.61
2018-09-14T01:05:01.273Z,91.40
2018-09-14T01:06:01.262Z,91.30
2018-09-14T01:07:01.250Z,91.91
2018-09-14T01:08:01.238Z,91.71
2018-09-14T01:09:01.252Z,91.30
2018-09-14T01:10:01.217Z,91.81
2018-09-14T01:11:01.205Z,91.44
2018-09-14T01:12:01.196Z,91.81
2018-09-14T01:13:01.187Z,91.44
2018-09-14T01:14:01.202Z,91.55
2018-09-14T01:15:01.165Z,91.14
2018-09-14T01:16:01.150Z,92.26
2018-09-14T01:17:01.141Z,91.75
2018-09-14T01:18:01.127Z,91.75
2018-09-14T01:19:01.138Z,91.75
2018-09-14T01:20:01.131Z,91.75
2018-09-14T01:21:01.094Z,92.05
2018-09-14T01:22:01.085Z,92.36
2018-09-14T01:23:01.071Z,92.16
2018-09-14T01:24:01.073Z,91.96
2018-09-14T01:25:01.052Z,91.96
2018-09-14T01:26:01.038Z,91.96
2018-09-14T01:27:01.028Z,92.10
2018-09-14T01:28:01.035Z,92.05
2018-09-14T01:29:01.004Z,92.26
2018-09-14T01:30:00.993Z,92.10
2018-09-14T01:31:01.009Z,91.79
2018-09-14T01:32:00.972Z,92.91
2018-09-14T01:33:00.990Z,92.36
2018-09-14T01:34:00.949Z,92.67
2018-09-14T01:35:00.938Z,92.20
2018-09-14T01:36:00.927Z,92.00
2018-09-14T01:37:00.916Z,92.20
2018-09-14T01:38:00.934Z,91.96
2018-09-14T01:39:00.895Z,92.00
2018-09-14T01:40:00.904Z,92.10
2018-09-14T01:41:00.871Z,92.10
2018-09-14T01:42:00.861Z,91.96
2018-09-14T01:43:00.851Z,92.20
2018-09-14T01:44:00.845Z,92.46
2018-09-14T01:45:00.848Z,92.50
2018-09-14T01:46:00.823Z,92.41
2018-09-14T01:47:00.814Z,92.77
2018-09-14T01:48:00.794Z,92.67
2018-09-14T01:49:00.787Z,91.96
2018-09-14T01:50:00.793Z,92.05
2018-09-14T01:51:00.763Z,92.20
2018-09-14T01:52:00.750Z,92.30
2018-09-14T01:53:00.744Z,92.26
2018-09-14T01:54:00.751Z,92.50
2018-09-14T01:55:00.741Z,92.46
2018-09-14T01:56:00.706Z,92.61
2018-09-14T01:57:00.697Z,92.20
2018-09-14T01:58:00.683Z,92.05
2018-09-14T01:59:00.672Z,91.69
2018-09-14T02:00:00.681Z,92.91
2018-09-14T02:01:00.650Z,91.89
2018-09-14T02:02:00.641Z,92.20
2018-09-14T02:03:00.650Z,92.50
2018-09-14T02:04:00.618Z,92.41
2018-09-14T02:05:00.608Z,92.30
2018-09-14T02:06:00.610Z,92.41
2018-09-14T02:07:00.583Z,92.00
2018-09-14T02:08:00.573Z,92.00
2018-09-14T02:09:00.562Z,92.30
2018-09-14T02:10:00.551Z,92.20
2018-09-14T02:11:00.559Z,92.10
2018-09-14T02:12:00.528Z,92.10
2018-09-14T02:13:00.517Z,92.10
2018-09-14T02:14:00.506Z,92.10
2018-09-14T02:15:00.518Z,92.00
2018-09-14T02:16:00.489Z,92.10
2018-09-14T02:17:00.473Z,92.41
2018-09-14T02:18:00.461Z,92.10
2018-09-14T02:19:00.454Z,91.94
2018-09-14T02:20:00.468Z,92.30
2018-09-14T02:21:00.429Z,91.89
2018-09-14T02:22:00.417Z,92.00
2018-09-14T02:23:00.445Z,92.10
2018-09-14T02:24:00.396Z,92.41
2018-09-14T02:25:00.385Z,92.61
2018-09-14T02:26:00.374Z,92.50
2018-09-14T02:27:00.362Z,92.24
2018-09-14T02:28:00.373Z,92.55
2018-09-14T02:29:00.341Z,92.55
2018-09-14T02:30:00.330Z,92.35
2018-09-14T02:31:00.319Z,93.06
2018-09-14T02:32:00.307Z,92.96
2018-09-14T02:33:00.333Z,93.26
2018-09-14T02:34:00.286Z,92.96
2018-09-14T02:35:00.276Z,92.96
2018-09-14T02:36:00.264Z,93.06
2018-09-14T02:37:00.252Z,93.16
2018-09-14T02:38:00.263Z,93.06
2018-09-14T02:39:00.252Z,93.16
2018-09-14T02:40:00.219Z,93.26
2018-09-14T02:41:00.212Z,93.57
2018-09-14T02:42:00.200Z,92.35
2018-09-14T02:43:00.187Z,93.37
2018-09-14T02:44:00.204Z,93.06
2018-09-14T02:45:00.163Z,93.26
2018-09-14T02:46:00.153Z,93.26
2018-09-14T02:47:00.144Z,93.21
2018-09-14T02:48:00.131Z,93.47
2018-09-14T02:49:00.145Z,93.26
2018-09-14T02:50:00.108Z,93.16
2018-09-14T02:51:00.112Z,93.26
2018-09-14T02:52:00.092Z,93.26
2018-09-14T02:53:00.076Z,92.96
2018-09-14T02:54:00.064Z,93.06
2018-09-14T02:55:00.075Z,93.26
2018-09-14T02:56:00.045Z,93.31
2018-09-14T02:57:00.056Z,93.37
2018-09-14T02:58:00.020Z,93.16
2018-09-14T02:59:00.010Z,93.16
2018-09-14T03:00:00.064Z,93.16
2018-09-14T03:00:59.988Z,93.16
2018-09-14T03:01:59.996Z,93.16
2018-09-14T03:02:59.981Z,93.26
2018-09-14T03:03:59.956Z,93.06
2018-09-14T03:04:59.943Z,93.26
2018-09-14T03:05:59.938Z,93.47
2018-09-14T03:06:59.920Z,93.26
2018-09-14T03:07:59.934Z,93.26
2018-09-14T03:08:59.899Z,93.06
2018-09-14T03:09:59.909Z,93.26
2018-09-14T03:10:59.876Z,93.26
2018-09-14T03:11:59.866Z,93.26
2018-09-14T03:12:59.868Z,93.06
2018-09-14T03:13:59.844Z,93.26
2018-09-14T03:14:59.833Z,93.26
2018-09-14T03:15:59.843Z,93.16
2018-09-14T03:16:59.809Z,93.16
2018-09-14T03:17:59.829Z,93.26
2018-09-14T03:18:59.791Z,92.35
2018-09-14T03:19:59.781Z,93.06
2018-09-14T03:20:59.770Z,92.20
2018-09-14T03:21:59.753Z,92.04
2018-09-14T03:22:59.764Z,92.45
2018-09-14T03:23:59.732Z,92.14
2018-09-14T03:24:59.741Z,92.04
2018-09-14T03:25:59.710Z,92.04
2018-09-14T03:26:59.702Z,92.24
2018-09-14T03:27:59.688Z,92.10
2018-09-14T03:28:59.681Z,91.83
2018-09-14T03:29:59.687Z,92.14
2018-09-14T03:30:59.801Z,92.24
2018-09-14T03:31:59.643Z,92.24
2018-09-14T03:32:59.632Z,91.63
2018-09-14T03:33:59.622Z,91.94
2018-09-14T03:34:59.623Z,92.45
2018-09-14T03:35:59.599Z,92.04
2018-09-14T03:36:59.620Z,92.04
2018-09-14T03:37:59.577Z,92.35
2018-09-14T03:38:59.576Z,92.24
2018-09-14T03:39:59.557Z,92.45
2018-09-14T03:40:59.544Z,92.45
2018-09-14T03:41:59.564Z,92.45
2018-09-14T03:42:59.523Z,92.04
2018-09-14T03:43:59.513Z,92.04
2018-09-14T03:44:59.500Z,92.14
2018-09-14T03:45:59.488Z,92.04
2018-09-14T03:46:59.499Z,91.83
2018-09-14T03:47:59.467Z,92.45
2018-09-14T03:48:59.456Z,92.14
2018-09-14T03:49:59.445Z,92.14
2018-09-14T03:50:59.457Z,92.14
2018-09-14T03:51:59.422Z,92.04
2018-09-14T03:52:59.428Z,92.24
2018-09-14T03:53:59.403Z,91.83
2018-09-14T03:54:59.410Z,91.83
2018-09-14T03:55:59.381Z,92.04
2018-09-14T03:56:59.371Z,91.83
2018-09-14T03:57:59.356Z,91.74
2018-09-14T03:58:59.346Z,91.83
2018-09-14T03:59:59.355Z,91.94
2018-09-14T04:00:59.322Z,92.04
2018-09-14T04:01:59.312Z,92.35
2018-09-14T04:02:59.323Z,92.55
2018-09-14T04:03:59.292Z,92.14
2018-09-14T04:04:59.280Z,92.24
2018-09-14T04:05:59.267Z,91.88
2018-09-14T04:06:59.258Z,92.04
2018-09-14T04:07:59.288Z,92.04
2018-09-14T04:08:59.236Z,92.14
2018-09-14T04:09:59.229Z,92.35
2018-09-14T04:10:59.213Z,92.19
2018-09-14T04:11:59.202Z,92.24
2018-09-14T04:12:59.230Z,92.04
2018-09-14T04:13:59.179Z,91.83
2018-09-14T04:14:59.169Z,92.14
2018-09-14T04:15:59.157Z,92.14
2018-09-14T04:16:59.145Z,91.83
2018-09-14T04:17:59.165Z,91.12
2018-09-14T04:18:59.126Z,91.94
2018-09-14T04:19:59.113Z,91.12
2018-09-14T04:20:59.102Z,92.04
2018-09-14T04:21:59.090Z,91.74
2018-09-14T04:22:59.102Z,91.83
2018-09-14T04:23:59.068Z,92.04
2018-09-14T04:24:59.057Z,91.94
2018-09-14T04:25:59.048Z,92.14
2018-09-14T04:26:59.088Z,91.83
2018-09-14T04:27:59.024Z,91.83
2018-09-14T04:28:59.016Z,91.74
2018-09-14T04:29:59.001Z,91.63
2018-09-14T04:30:58.990Z,92.04
2018-09-14T04:31:59.015Z,91.83
2018-09-14T04:32:58.972Z,91.74
2018-09-14T04:33:58.958Z,91.12
2018-09-14T04:34:58.946Z,91.83
2018-09-14T04:35:58.935Z,91.53
2018-09-14T04:36:58.944Z,92.04
2018-09-14T04:37:58.992Z,92.04
2018-09-14T04:38:58.903Z,91.83
2018-09-14T04:39:58.890Z,92.35
2018-09-14T04:40:58.880Z,92.00
2018-09-14T04:41:58.893Z,91.59
2018-09-14T04:42:58.861Z,92.00
2018-09-14T04:43:58.847Z,92.04
2018-09-14T04:44:58.835Z,91.59
2018-09-14T04:45:58.845Z,91.79
2018-09-14T04:46:58.812Z,90.98
2018-09-14T04:47:58.801Z,90.61
2018-09-14T04:48:58.804Z,90.57
2018-09-14T04:49:58.779Z,90.57
2018-09-14T04:50:58.768Z,90.81
2018-09-14T04:51:58.756Z,90.77
2018-09-14T04:52:58.748Z,91.39
2018-09-14T04:53:58.756Z,90.98
2018-09-14T04:54:58.726Z,91.33
2018-09-14T04:55:58.713Z,91.22
2018-09-14T04:56:58.702Z,91.12
2018-09-14T04:57:58.691Z,91.63
2018-09-14T04:58:58.692Z,91.53
2018-09-14T04:59:58.669Z,91.83
2018-09-14T05:00:58.658Z,91.53
2018-09-14T05:01:58.646Z,91.22
2018-09-14T05:02:58.666Z,91.63
2018-09-14T05:03:58.653Z,91.39
2018-09-14T05:04:58.646Z,91.94
2018-09-14T05:05:58.602Z,91.49
2018-09-14T05:06:58.676Z,91.79
2018-09-14T05:07:58.578Z,91.22
2018-09-14T05:08:58.569Z,91.18
2018-09-14T05:09:58.578Z,91.69
2018-09-14T05:10:58.548Z,92.00
2018-09-14T05:11:58.535Z,91.79
2018-09-14T05:12:58.526Z,91.59
2018-09-14T05:13:58.568Z,91.49
2018-09-14T05:14:58.502Z,91.94
2018-09-14T05:15:58.492Z,92.10
2018-09-14T05:16:58.479Z,92.00
2018-09-14T05:17:58.471Z,92.20
2018-09-14T05:18:58.479Z,92.30
2018-09-14T05:19:58.471Z,91.79
2018-09-14T05:20:58.434Z,91.94
2018-09-14T05:21:58.424Z,92.55
2018-09-14T05:22:58.413Z,92.24
2018-09-14T05:23:58.439Z,92.04
2018-09-14T05:24:58.446Z,92.20
2018-09-14T05:25:58.382Z,92.14
2018-09-14T05:26:58.372Z,91.94
2018-09-14T05:27:58.358Z,91.74
2018-09-14T05:28:58.349Z,91.83
2018-09-14T05:29:58.366Z,92.35
2018-09-14T05:30:58.326Z,91.74
2018-09-14T05:31:58.313Z,92.10
2018-09-14T05:32:58.301Z,91.74
2018-09-14T05:33:58.291Z,91.89
2018-09-14T05:34:58.303Z,92.04
2018-09-14T05:35:58.282Z,92.30
2018-09-14T05:36:58.258Z,91.63
2018-09-14T05:37:58.246Z,91.59
2018-09-14T05:38:58.235Z,91.59
2018-09-14T05:39:58.226Z,91.28
2018-09-14T05:40:58.227Z,91.22
2018-09-14T05:41:58.203Z,91.89
2018-09-14T05:42:58.191Z,92.50
2018-09-14T05:43:58.181Z,92.81
2018-09-14T05:44:58.169Z,92.10
2018-09-14T05:45:58.179Z,92.20
2018-09-14T05:46:58.151Z,92.10
2018-09-14T05:47:58.136Z,91.69
2018-09-14T05:48:58.125Z,91.18
2018-09-14T05:49:58.136Z,91.49
2018-09-14T05:50:58.131Z,91.28
2018-09-14T05:51:58.091Z,91.39
2018-09-14T05:52:58.080Z,91.69
2018-09-14T05:53:58.090Z,92.00
2018-09-14T05:54:58.092Z,91.24
2018-09-14T05:55:58.046Z,91.14
2018-09-14T05:56:58.036Z,90.53
2018-09-14T05:57:58.032Z,90.22
2018-09-14T05:58:58.012Z,89.97
2018-09-14T05:59:58.123Z,89.36
2018-09-14T06:00:57.991Z,89.06
2018-09-14T06:01:57.981Z,89.06
2018-09-14T06:02:57.973Z,88.34
2018-09-14T06:03:57.958Z,86.82
2018-09-14T06:04:57.988Z,86.51
2018-09-14T06:05:57.934Z,87.12
2018-09-14T06:06:57.924Z,87.18
2018-09-14T06:07:57.913Z,86.98
2018-09-14T06:08:57.901Z,87.29
2018-09-14T06:09:57.917Z,87.69
2018-09-14T06:10:57.881Z,86.98
2018-09-14T06:11:57.893Z,86.43
2018-09-14T06:12:57.857Z,85.82
2018-09-14T06:13:57.858Z,86.06
2018-09-14T06:14:57.840Z,85.75
2018-09-14T06:15:57.843Z,85.55
2018-09-14T06:16:57.874Z,85.72
2018-09-14T06:17:57.801Z,86.68
2018-09-14T06:18:57.790Z,86.43
2018-09-14T06:19:57.781Z,85.86
2018-09-14T06:20:57.769Z,87.35
2018-09-14T06:21:57.780Z,87.35
2018-09-14T06:22:57.775Z,87.35
2018-09-14T06:23:57.733Z,87.35
2018-09-14T06:24:57.753Z,86.83
2018-09-14T06:25:57.717Z,85.98
2018-09-14T06:26:57.705Z,86.29
2018-09-14T06:27:57.689Z,85.78
2018-09-14T06:28:57.679Z,85.78
2018-09-14T06:29:57.692Z,85.47
2018-09-14T06:30:57.680Z,85.68
2018-09-14T06:31:57.645Z,84.97
2018-09-14T06:32:57.633Z,85.27
2018-09-14T06:33:57.623Z,85.58
2018-09-14T06:34:57.623Z,84.25
2018-09-14T06:35:57.623Z,84.25
2018-09-14T06:36:57.627Z,83.95
2018-09-14T06:37:57.583Z,84.66
2018-09-14T06:38:57.568Z,84.21
2018-09-14T06:39:57.555Z,84.42
2018-09-14T06:40:57.545Z,83.81
2018-09-14T06:41:57.566Z,83.70
2018-09-14T06:42:57.522Z,82.48
2018-09-14T06:43:57.516Z,82.38
2018-09-14T06:44:57.586Z,82.38
2018-09-14T06:45:57.489Z,82.38
2018-09-14T06:46:57.500Z,82.89
2018-09-14T06:47:57.467Z,83.81
2018-09-14T06:48:57.459Z,83.29
2018-09-14T06:49:57.445Z,82.59
2018-09-14T06:50:57.435Z,83.81
2018-09-14T06:51:57.448Z,83.40
2018-09-14T06:52:57.461Z,82.79
2018-09-14T06:53:57.401Z,82.89
2018-09-14T06:54:57.397Z,82.18
2018-09-14T06:55:57.376Z,82.38
2018-09-14T06:56:57.365Z,82.07
2018-09-14T06:57:57.384Z,82.79
2018-09-14T06:58:57.344Z,82.89
2018-09-14T06:59:57.370Z,83.70
2018-09-14T07:00:57.325Z,83.70
2018-09-14T07:01:57.311Z,83.50
2018-09-14T07:02:57.321Z,83.40
2018-09-14T07:03:57.310Z,84.11
2018-09-14T07:04:57.276Z,83.40
2018-09-14T07:05:57.265Z,82.79
2018-09-14T07:06:57.257Z,83.15
2018-09-14T07:07:57.243Z,83.26
2018-09-14T07:08:57.266Z,83.26
2018-09-14T07:09:57.220Z,81.53
2018-09-14T07:10:57.212Z,82.04
2018-09-14T07:11:57.202Z,82.45
2018-09-14T07:12:57.190Z,81.87
2018-09-14T07:13:57.263Z,81.93
2018-09-14T07:14:57.166Z,82.54
2018-09-14T07:15:57.154Z,81.93
2018-09-14T07:16:57.144Z,83.26
2018-09-14T07:17:57.136Z,82.24
2018-09-14T07:18:57.144Z,82.24
2018-09-14T07:19:57.109Z,82.34
2018-09-14T07:20:57.102Z,82.45
2018-09-14T07:21:57.147Z,83.15
2018-09-14T07:22:57.077Z,81.43
2018-09-14T07:23:57.086Z,81.09
2018-09-14T07:24:57.169Z,81.70
2018-09-14T07:25:57.065Z,79.86
2018-09-14T07:26:57.032Z,79.25
2018-09-14T07:27:57.038Z,80.68
2018-09-14T07:28:57.080Z,81.90
2018-09-14T07:29:57.043Z,81.70
2018-09-14T07:30:57.030Z,82.00
2018-09-14T07:31:57.113Z,80.84
2018-09-14T07:32:57.005Z,81.35
2018-09-14T07:33:56.954Z,80.13
2018-09-14T07:34:56.944Z,80.74
2018-09-14T07:35:56.956Z,80.94
2018-09-14T07:36:56.922Z,79.32
2018-09-14T07:37:56.910Z,78.61
2018-09-14T07:38:56.927Z,79.12
2018-09-14T07:39:56.889Z,79.28
2018-09-14T07:40:56.882Z,79.49
2018-09-14T07:41:56.866Z,78.37
2018-09-14T07:42:56.857Z,78.37
2018-09-14T07:43:56.861Z,77.86
2018-09-14T07:44:56.853Z,77.97
2018-09-14T07:45:56.821Z,77.56
2018-09-14T07:46:56.815Z,78.47
2018-09-14T07:47:56.799Z,78.51
2018-09-14T07:48:56.813Z,79.90
2018-09-14T07:49:56.780Z,79.28
2018-09-14T07:50:56.788Z,77.42
2018-09-14T07:51:56.755Z,78.13
2018-09-14T07:52:56.745Z,77.42
2018-09-14T07:53:56.736Z,77.32
2018-09-14T07:54:56.743Z,76.54
2018-09-14T07:55:56.715Z,77.36
2018-09-14T07:56:56.700Z,78.17
2018-09-14T07:57:56.689Z,77.97
2018-09-14T07:58:56.699Z,78.57
2018-09-14T07:59:56.698Z,76.64
2018-09-14T08:00:56.657Z,77.66
2018-09-14T08:01:56.644Z,79.28
2018-09-14T08:02:56.645Z,78.57
2018-09-14T08:03:56.623Z,78.06
2018-09-14T08:04:56.634Z,77.42
2018-09-14T08:05:56.604Z,77.32
2018-09-14T08:06:56.611Z,76.61
2018-09-14T08:07:56.578Z,78.03
2018-09-14T08:08:56.567Z,78.09
2018-09-14T08:09:56.558Z,75.86
2018-09-14T08:10:56.566Z,75.05
2018-09-14T08:11:56.565Z,75.52
2018-09-14T08:12:56.523Z,75.46
2018-09-14T08:13:56.511Z,75.32
2018-09-14T08:14:56.502Z,74.10
2018-09-14T08:15:56.516Z,73.53
2018-09-14T08:16:56.480Z,74.38
2018-09-14T08:17:56.470Z,75.25
2018-09-14T08:18:56.472Z,75.12
2018-09-14T08:19:56.467Z,75.01
2018-09-14T08:20:56.457Z,75.28
2018-09-14T08:21:56.479Z,74.98
2018-09-14T08:22:56.414Z,74.04
2018-09-14T08:23:56.425Z,73.12
2018-09-14T08:24:56.394Z,73.69
2018-09-14T08:25:56.382Z,72.78
2018-09-14T08:26:56.443Z,72.58
2018-09-14T08:27:56.357Z,71.97
2018-09-14T08:28:56.369Z,71.40
2018-09-14T08:29:56.337Z,71.80
2018-09-14T08:30:56.327Z,72.34
2018-09-14T08:31:56.315Z,73.66
2018-09-14T08:32:56.303Z,73.36
2018-09-14T08:33:56.312Z,73.93
2018-09-14T08:34:56.282Z,72.92
2018-09-14T08:35:56.268Z,73.93
2018-09-14T08:36:56.267Z,72.72
2018-09-14T08:37:56.245Z,72.78
2018-09-14T08:38:56.248Z,72.08
2018-09-14T08:39:56.230Z,72.08
2018-09-14T08:40:56.213Z,73.19
2018-09-14T08:41:56.201Z,72.68
2018-09-14T08:42:56.191Z,71.57
2018-09-14T08:43:56.206Z,71.09
2018-09-14T08:44:56.196Z,71.80
2018-09-14T08:45:56.160Z,72.41
2018-09-14T08:46:56.146Z,73.63
2018-09-14T08:47:56.179Z,74.13
2018-09-14T08:48:56.125Z,74.10
2018-09-14T08:49:56.143Z,73.29
2018-09-14T08:50:56.102Z,72.38
2018-09-14T08:51:56.095Z,71.57
2018-09-14T08:52:56.080Z,72.08
2018-09-14T08:53:56.070Z,71.73
2018-09-14T08:54:56.081Z,71.94
2018-09-14T08:55:56.057Z,70.45
2018-09-14T08:56:56.058Z,70.86
2018-09-14T08:57:56.077Z,72.01
2018-09-14T08:58:56.011Z,72.72
2018-09-14T08:59:56.001Z,72.31
2018-09-14T09:00:56.036Z,72.45
2018-09-14T09:01:56.002Z,71.70
2018-09-14T09:02:55.968Z,71.84
2018-09-14T09:03:56.016Z,72.45
2018-09-14T09:04:55.945Z,72.31
2018-09-14T09:05:55.934Z,73.12
2018-09-14T09:06:55.947Z,73.49
2018-09-14T09:07:55.913Z,71.73
2018-09-14T09:08:55.901Z,70.22
2018-09-14T09:09:55.892Z,72.14
2018-09-14T09:10:55.881Z,72.01
2018-09-14T09:11:55.884Z,71.67
2018-09-14T09:12:55.859Z,69.65
2018-09-14T09:13:55.867Z,69.78
2018-09-14T09:14:55.838Z,66.42
2018-09-14T09:15:55.838Z,65.31
2018-09-14T09:16:55.837Z,66.55
2018-09-14T09:17:55.801Z,69.11
2018-09-14T09:18:55.790Z,66.93
2018-09-14T09:19:55.826Z,67.16
2018-09-14T09:20:55.786Z,66.02
2018-09-14T09:21:55.761Z,65.19
2018-09-14T09:22:55.745Z,64.05
2018-09-14T09:23:55.734Z,63.21
2018-09-14T09:24:55.764Z,61.77
2018-09-14T09:25:55.712Z,61.70
2018-09-14T09:26:55.701Z,61.20
2018-09-14T09:27:55.693Z,62.98
2018-09-14T09:28:55.679Z,61.17
2018-09-14T09:29:55.700Z,60.27
2018-09-14T09:30:55.658Z,60.84
2018-09-14T09:31:55.647Z,60.24
2018-09-14T09:32:55.647Z,60.81
2018-09-14T09:33:55.624Z,60.24
2018-09-14T09:34:55.656Z,60.31
2018-09-14T09:35:55.602Z,60.94
2018-09-14T09:36:55.591Z,62.07
2018-09-14T09:37:55.592Z,61.57
2018-09-14T09:38:55.569Z,59.66
2018-09-14T09:39:55.559Z,62.78
2018-09-14T09:40:55.547Z,60.80
2018-09-14T09:41:55.536Z,61.90
2018-09-14T09:42:55.539Z,61.37
2018-09-14T09:43:55.613Z,62.91
2018-09-14T09:44:55.561Z,62.38
2018-09-14T09:45:55.490Z,61.44
2018-09-14T09:46:55.482Z,61.51
2018-09-14T09:47:55.560Z,59.25
2018-09-14T09:48:55.461Z,59.55
2018-09-14T09:49:55.468Z,59.25
2018-09-14T09:50:55.564Z,56.86
2018-09-14T09:51:55.425Z,58.77
2018-09-14T09:52:55.413Z,58.34
2018-09-14T09:53:55.405Z,56.86
2018-09-14T09:54:55.439Z,56.92
2018-09-14T09:55:55.404Z,60.16
2018-09-14T09:56:55.369Z,59.92
2018-09-14T09:57:55.357Z,60.45
2018-09-14T09:58:55.347Z,60.96
2018-09-14T09:59:55.367Z,62.77
2018-09-14T10:00:55.324Z,62.16
2018-09-14T10:01:55.315Z,61.86
2018-09-14T10:02:55.305Z,61.05
2018-09-14T10:03:55.332Z,60.78
2018-09-14T10:04:55.304Z,61.36
2018-09-14T10:05:55.278Z,63.40
2018-09-14T10:06:55.257Z,61.73
2018-09-14T10:07:55.262Z,62.91
2018-09-14T10:08:55.266Z,62.68
2018-09-14T10:09:55.227Z,61.04
2018-09-14T10:10:55.215Z,59.41
2018-09-14T10:11:55.230Z,59.25
2018-09-14T10:12:55.193Z,57.31
2018-09-14T10:13:55.180Z,57.51
2018-09-14T10:14:55.186Z,55.71
2018-09-14T10:15:55.161Z,55.88
2018-09-14T10:16:55.177Z,55.08
2018-09-14T10:17:55.140Z,55.68
2018-09-14T10:18:55.126Z,57.86
2018-09-14T10:19:55.115Z,55.55
2018-09-14T10:20:55.170Z,54.93
2018-09-14T10:21:55.121Z,55.13
2018-09-14T10:22:55.084Z,55.52
2018-09-14T10:23:55.096Z,53.32
2018-09-14T10:24:55.061Z,53.47
2018-09-14T10:25:55.052Z,54.97
2018-09-14T10:26:55.039Z,55.18
2018-09-14T10:27:55.030Z,55.38
2018-09-14T10:28:55.084Z,56.78
2018-09-14T10:29:55.008Z,56.23
2018-09-14T10:30:55.020Z,55.76
2018-09-14T10:31:54.987Z,57.37
2018-09-14T10:32:54.976Z,55.86
2018-09-14T10:33:55.024Z,56.66
2018-09-14T10:34:54.986Z,55.68
2018-09-14T10:35:54.972Z,55.91
2018-09-14T10:36:54.936Z,57.70
2018-09-14T10:37:54.959Z,57.37
2018-09-14T10:38:54.910Z,57.54
2018-09-14T10:39:54.899Z,57.81
2018-09-14T10:40:54.997Z,58.39
2018-09-14T10:41:54.908Z,57.48
2018-09-14T10:42:54.942Z,55.25
2018-09-14T10:43:54.856Z,56.13
2018-09-14T10:44:54.845Z,55.73
2018-09-14T10:45:54.835Z,55.13
2018-09-14T10:46:54.850Z,55.00
2018-09-14T10:47:54.814Z,54.60
2018-09-14T10:48:54.934Z,52.67
2018-09-14T10:49:54.815Z,53.30
2018-09-14T10:50:54.780Z,53.30
2018-09-14T10:51:54.790Z,52.29
2018-09-14T10:52:54.758Z,52.09
2018-09-14T10:53:54.746Z,54.10
2018-09-14T10:54:54.904Z,53.30
2018-09-14T10:55:54.728Z,52.49
2018-09-14T10:56:54.740Z,52.89
2018-09-14T10:57:54.701Z,54.90
2018-09-14T10:58:54.692Z,53.00
2018-09-14T10:59:54.679Z,52.49
2018-09-14T11:00:54.777Z,53.00
2018-09-14T11:01:54.669Z,53.39
2018-09-14T11:02:54.644Z,54.97
2018-09-14T11:03:54.636Z,53.37
2018-09-14T11:04:54.626Z,52.84
2018-09-14T11:05:54.611Z,52.34
2018-09-14T11:06:54.632Z,51.44
2018-09-14T11:07:54.589Z,48.86
2018-09-14T11:08:54.597Z,49.99
2018-09-14T11:09:54.577Z,51.49
2018-09-14T11:10:54.555Z,49.08
2018-09-14T11:11:54.542Z,50.71
2018-09-14T11:12:54.577Z,49.84
2018-09-14T11:13:54.556Z,50.44
2018-09-14T11:14:54.511Z,50.54
2018-09-14T11:15:54.499Z,51.37
2018-09-14T11:16:54.487Z,50.26
2018-09-14T11:17:54.476Z,50.96
2018-09-14T11:18:54.533Z,50.56
2018-09-14T11:19:54.453Z,53.67
2018-09-14T11:20:54.447Z,49.93
2018-09-14T11:21:54.431Z,49.74
2018-09-14T11:22:54.421Z,48.79
2018-09-14T11:23:54.436Z,49.19
2018-09-14T11:24:54.484Z,48.66
2018-09-14T11:25:54.386Z,48.57
2018-09-14T11:26:54.377Z,46.94
2018-09-14T11:27:54.368Z,48.57
2018-09-14T11:28:54.382Z,49.04
2018-09-14T11:29:54.343Z,46.84
2018-09-14T11:30:54.330Z,43.76
2018-09-14T11:31:54.318Z,45.80
2018-09-14T11:32:54.314Z,47.83
2018-09-14T11:33:54.318Z,48.03
2018-09-14T11:34:54.286Z,48.93
2018-09-14T11:35:54.276Z,47.65
2018-09-14T11:36:54.264Z,49.16
2018-09-14T11:37:54.305Z,49.68
2018-09-14T11:38:54.241Z,50.66
2018-09-14T11:39:54.260Z,48.18
2018-09-14T11:40:54.219Z,49.86
2018-09-14T11:41:54.207Z,47.35
2018-09-14T11:42:54.197Z,46.97
2018-09-14T11:43:54.185Z,47.27
2018-09-14T11:44:54.204Z,47.38
2018-09-14T11:45:54.169Z,47.47
2018-09-14T11:46:54.155Z,47.47
2018-09-14T11:47:54.146Z,47.17
2018-09-14T11:48:54.135Z,47.97
2018-09-14T11:49:54.144Z,49.48
2018-09-14T11:50:54.114Z,47.35
2018-09-14T11:51:54.103Z,48.25
2018-09-14T11:52:54.111Z,48.03
2018-09-14T11:53:54.084Z,47.53
2018-09-14T11:54:54.069Z,48.33
2018-09-14T11:55:54.059Z,51.42
2018-09-14T11:56:54.048Z,48.61
2018-09-14T11:57:54.060Z,48.38
2018-09-14T11:58:54.029Z,47.08
2018-09-14T11:59:54.016Z,47.38
2018-09-14T12:00:54.006Z,46.61
2018-09-14T12:01:54.010Z,45.48
2018-09-14T12:02:54.006Z,47.20
2018-09-14T12:03:53.974Z,48.43
2018-09-14T12:04:53.966Z,47.35
2018-09-14T12:05:53.952Z,47.17
2018-09-14T12:06:53.962Z,47.17
2018-09-14T12:07:53.933Z,47.65
2018-09-14T12:08:53.922Z,47.23
2018-09-14T12:09:53.933Z,47.13
2018-09-14T12:10:53.901Z,48.86
2018-09-14T12:11:53.888Z,48.96
2018-09-14T12:12:53.877Z,49.13
2018-09-14T12:13:53.976Z,50.31
2018-09-14T12:14:53.906Z,49.99
2018-09-14T12:15:53.877Z,48.49
2018-09-14T12:16:53.836Z,49.57
2018-09-14T12:17:53.824Z,46.88
2018-09-14T12:18:53.821Z,47.99
2018-09-14T12:19:53.808Z,48.28
2018-09-14T12:20:53.824Z,47.08
2018-09-14T12:21:53.781Z,49.08
2018-09-14T12:22:53.770Z,46.76
2018-09-14T12:23:53.761Z,46.86
2018-09-14T12:24:53.749Z,45.86
2018-09-14T12:25:53.751Z,46.18
2018-09-14T12:26:53.757Z,47.49
2018-09-14T12:27:53.717Z,49.08
2018-09-14T12:28:53.704Z,48.69
2018-09-14T12:29:53.693Z,48.28
2018-09-14T12:30:53.685Z,47.71
2018-09-14T12:31:53.703Z,49.11
2018-09-14T12:32:53.662Z,48.28
2018-09-14T12:33:53.651Z,46.76
2018-09-14T12:34:53.639Z,45.98
2018-09-14T12:35:53.629Z,45.70
2018-09-14T12:36:53.636Z,47.61
2018-09-14T12:37:53.608Z,47.73
2018-09-14T12:38:53.597Z,47.61
2018-09-14T12:39:53.605Z,47.81
2018-09-14T12:40:53.575Z,46.91
2018-09-14T12:41:53.565Z,47.03
2018-09-14T12:42:53.555Z,46.62
2018-09-14T12:43:53.544Z,45.65
2018-09-14T12:44:53.568Z,46.37
2018-09-14T12:45:53.523Z,48.40
2018-09-14T12:46:53.512Z,48.93
2018-09-14T12:47:53.532Z,49.45
2018-09-14T12:48:53.494Z,48.44
2018-09-14T12:49:53.480Z,49.76
2018-09-14T12:50:53.468Z,48.02
2018-09-14T12:51:53.463Z,48.00